Marshall, Alaska
Current Conditions -  °F | °C
As of 8:12 AM on Friday 24 Oct 2014 (Local Time) from PADM Reporting Station
Broken Clouds Broken Clouds  
Wind Chill: 14°   Ceiling: 800
Heat Index: 14°   Visibility: 8mi
Dew Point: 12°   Wind: 0mph
Humidity: 93%   Direction: NA
Pressure: 29.95"   Gusts: NA
Location:  61.88°N, 162.08°W
Report Text: PADM 241612Z AUTO 00000KT 8SM BKN008 M10/M11 A2995 RMK AO2 TSNO BKN V SCT $
Loading
Personal Weather Stations






























Interactive Weather Map
Tropical Storm Tracking
New forecast layout! Learn more

10-Day Weather Forecast

Advertisements
Track Severe Weather on mobile